createdAt,value
2022-08-30T00:02:20.831Z,99.90
2022-08-30T00:04:49.121Z,99.90
2022-08-30T00:07:16.450Z,99.90
2022-08-30T00:09:43.769Z,99.90
2022-08-30T00:12:11.182Z,99.90
2022-08-30T00:14:38.645Z,99.90
2022-08-30T00:17:06.197Z,99.90
2022-08-30T00:19:33.595Z,99.90
2022-08-30T00:22:00.986Z,99.90
2022-08-30T00:24:28.445Z,99.90
2022-08-30T00:26:56.036Z,99.90
2022-08-30T00:29:24.134Z,99.90
2022-08-30T00:31:52.082Z,99.90
2022-08-30T00:34:19.764Z,99.90
2022-08-30T00:36:48.328Z,99.90
2022-08-30T00:39:15.668Z,99.90
2022-08-30T00:41:43.028Z,99.90
2022-08-30T00:44:10.389Z,99.90
2022-08-30T00:46:37.812Z,99.90
2022-08-30T00:49:08.610Z,99.90
2022-08-30T00:51:36.282Z,99.90
2022-08-30T00:54:04.296Z,99.90
2022-08-30T00:56:33.496Z,99.90
2022-08-30T00:59:03.746Z,99.90
2022-08-30T01:01:34.049Z,99.90
2022-08-30T01:04:02.521Z,99.90
2022-08-30T01:06:32.491Z,99.90
2022-08-30T01:09:02.834Z,99.90
2022-08-30T01:11:34.413Z,99.90
2022-08-30T01:14:03.009Z,99.90
2022-08-30T01:16:33.485Z,99.90
2022-08-30T01:19:03.198Z,99.90
2022-08-30T01:21:40.439Z,99.90
2022-08-30T01:24:09.412Z,99.90
2022-08-30T01:26:37.531Z,99.90
2022-08-30T01:29:11.626Z,99.90
2022-08-30T01:31:39.425Z,99.90
2022-08-30T01:34:07.740Z,99.90
2022-08-30T01:36:37.725Z,99.90
2022-08-30T01:39:17.619Z,99.90
2022-08-30T01:41:45.483Z,99.90
2022-08-30T01:44:14.001Z,99.90
2022-08-30T01:46:46.739Z,99.90
2022-08-30T01:49:17.776Z,99.90
2022-08-30T01:52:00.666Z,99.90
2022-08-30T01:54:33.364Z,99.90
2022-08-30T01:57:08.225Z,99.90
2022-08-30T01:59:36.595Z,99.90
2022-08-30T02:02:04.979Z,99.90
2022-08-30T02:04:32.437Z,99.90
2022-08-30T02:07:00.356Z,99.90
2022-08-30T02:09:27.977Z,99.90
2022-08-30T02:11:56.097Z,99.90
2022-08-30T02:14:23.443Z,99.90
2022-08-30T02:16:51.142Z,99.90
2022-08-30T02:19:18.499Z,99.90
2022-08-30T02:21:45.925Z,99.90
2022-08-30T02:24:13.381Z,99.90
2022-08-30T02:26:40.757Z,99.90
2022-08-30T02:29:09.729Z,99.90
2022-08-30T02:31:37.110Z,99.90
2022-08-30T02:34:04.490Z,99.90
2022-08-30T02:36:32.334Z,99.90
2022-08-30T02:39:00.345Z,99.90
2022-08-30T02:41:28.104Z,99.90
2022-08-30T02:43:58.506Z,99.90
2022-08-30T02:46:27.089Z,99.90
2022-08-30T02:49:13.129Z,99.90
2022-08-30T02:51:48.128Z,99.90
2022-08-30T02:54:19.828Z,99.90
2022-08-30T02:56:48.836Z,99.90
2022-08-30T02:59:17.961Z,99.90
2022-08-30T03:01:45.913Z,99.90
2022-08-30T03:04:13.411Z,99.90
2022-08-30T03:06:40.783Z,99.90
2022-08-30T03:09:08.121Z,99.90
2022-08-30T03:11:35.559Z,99.90
2022-08-30T03:14:03.844Z,99.90
2022-08-30T03:16:31.251Z,99.90
2022-08-30T03:18:58.639Z,99.90
2022-08-30T03:21:25.965Z,99.90
2022-08-30T03:23:53.377Z,99.90
2022-08-30T03:26:20.920Z,99.90
2022-08-30T03:28:48.303Z,99.90
2022-08-30T03:31:15.743Z,99.90
2022-08-30T03:33:43.282Z,99.90
2022-08-30T03:36:11.740Z,99.90
2022-08-30T03:38:39.505Z,99.90
2022-08-30T03:41:07.521Z,99.90
2022-08-30T03:43:36.754Z,99.90
2022-08-30T03:46:04.672Z,99.90
2022-08-30T03:48:32.182Z,99.90
2022-08-30T03:50:59.666Z,99.90
2022-08-30T03:53:27.233Z,99.90
2022-08-30T03:55:54.985Z,99.90
2022-08-30T03:58:22.787Z,99.90
2022-08-30T04:00:50.898Z,99.90
2022-08-30T04:03:18.646Z,99.90
2022-08-30T04:05:46.189Z,99.90
2022-08-30T04:08:13.494Z,99.90
2022-08-30T04:10:41.599Z,99.90
2022-08-30T04:13:09.064Z,99.90
2022-08-30T04:15:36.733Z,99.90
2022-08-30T04:18:04.876Z,99.90
2022-08-30T04:20:32.926Z,99.90
2022-08-30T04:23:00.271Z,99.90
2022-08-30T04:25:27.914Z,99.90
2022-08-30T04:27:55.846Z,99.90
2022-08-30T04:30:23.219Z,99.90
2022-08-30T04:32:52.731Z,99.90
2022-08-30T04:35:23.564Z,99.90
2022-08-30T04:37:51.582Z,99.90
2022-08-30T04:40:19.461Z,99.90
2022-08-30T04:42:47.729Z,99.90
2022-08-30T04:45:16.435Z,99.90
2022-08-30T04:47:44.622Z,99.90
2022-08-30T04:50:15.805Z,99.90
2022-08-30T04:52:44.445Z,99.90
2022-08-30T04:55:15.733Z,99.90
2022-08-30T04:57:46.819Z,99.90
2022-08-30T05:00:14.944Z,99.90
2022-08-30T05:02:42.779Z,99.90
2022-08-30T05:05:29.515Z,99.90
2022-08-30T05:07:57.078Z,99.90
2022-08-30T05:10:25.421Z,99.90
2022-08-30T05:12:53.059Z,99.90
2022-08-30T05:15:22.333Z,99.90
2022-08-30T05:17:49.862Z,99.90
2022-08-30T05:20:17.353Z,99.90
2022-08-30T05:22:53.693Z,99.90
2022-08-30T05:25:23.949Z,99.90
2022-08-30T05:27:52.418Z,99.90
2022-08-30T05:30:21.537Z,99.90
2022-08-30T05:32:49.906Z,99.90
2022-08-30T05:35:22.208Z,99.90
2022-08-30T05:37:52.891Z,99.90
2022-08-30T05:40:21.285Z,99.90
2022-08-30T05:42:49.197Z,99.90
2022-08-30T05:45:16.861Z,99.90
2022-08-30T05:47:44.258Z,99.90
2022-08-30T05:50:11.678Z,99.90
2022-08-30T05:52:40.464Z,99.90
2022-08-30T05:55:09.213Z,99.90
2022-08-30T05:57:38.618Z,99.90
2022-08-30T06:00:11.910Z,99.90
2022-08-30T06:02:42.561Z,99.90
2022-08-30T06:05:14.159Z,99.90
2022-08-30T06:07:44.021Z,99.90
2022-08-30T06:10:12.371Z,99.90
2022-08-30T06:12:40.029Z,99.90
2022-08-30T06:15:08.059Z,99.90
2022-08-30T06:17:35.831Z,99.90
2022-08-30T06:20:03.742Z,99.90
2022-08-30T06:22:31.253Z,99.90
2022-08-30T06:24:59.205Z,99.90
2022-08-30T06:27:26.657Z,99.90
2022-08-30T06:29:54.175Z,99.90
2022-08-30T06:32:22.264Z,99.90
2022-08-30T06:34:50.047Z,99.90
2022-08-30T06:37:29.353Z,99.90
2022-08-30T06:39:58.439Z,99.90
2022-08-30T06:42:32.357Z,99.90
2022-08-30T06:45:10.754Z,99.90
2022-08-30T06:47:40.537Z,99.90
2022-08-30T06:50:08.736Z,99.90
2022-08-30T06:52:42.456Z,99.90
2022-08-30T06:55:13.018Z,99.90
2022-08-30T06:57:40.444Z,99.90
2022-08-30T07:00:10.624Z,99.90
2022-08-30T07:02:38.427Z,99.90
2022-08-30T07:05:07.899Z,99.90
2022-08-30T07:07:36.361Z,99.90
2022-08-30T07:10:06.604Z,99.90
2022-08-30T07:12:34.457Z,99.90
2022-08-30T07:15:04.842Z,99.90
2022-08-30T07:17:51.590Z,99.90
2022-08-30T07:20:21.463Z,99.90
2022-08-30T07:22:49.210Z,99.90
2022-08-30T07:25:16.541Z,99.90
2022-08-30T07:27:47.635Z,99.90
2022-08-30T07:30:14.961Z,99.90
2022-08-30T07:32:42.341Z,99.90
2022-08-30T07:35:10.511Z,99.90
2022-08-30T07:37:37.875Z,99.90
2022-08-30T07:40:05.667Z,99.90
2022-08-30T07:42:33.063Z,99.90
2022-08-30T07:45:00.471Z,99.90
2022-08-30T07:47:28.425Z,99.90
2022-08-30T07:49:56.375Z,99.90
2022-08-30T07:52:23.877Z,99.90
2022-08-30T07:54:52.858Z,99.90
2022-08-30T07:57:20.622Z,99.90
2022-08-30T07:59:47.961Z,99.90
2022-08-30T08:02:16.041Z,99.90
2022-08-30T08:04:43.951Z,99.90
2022-08-30T08:07:15.538Z,99.90
2022-08-30T08:09:42.942Z,99.90
2022-08-30T08:12:12.890Z,99.90
2022-08-30T08:14:41.445Z,99.90
2022-08-30T08:17:09.728Z,99.90
2022-08-30T08:19:37.270Z,99.90
2022-08-30T08:22:20.121Z,99.90
2022-08-30T08:24:49.502Z,99.90
2022-08-30T08:27:17.088Z,99.90
2022-08-30T08:29:44.442Z,99.90
2022-08-30T08:32:12.403Z,99.90
2022-08-30T08:34:41.486Z,99.90
2022-08-30T08:37:08.897Z,99.90
2022-08-30T08:39:37.025Z,99.90
2022-08-30T08:42:25.044Z,99.90
2022-08-30T08:45:11.741Z,99.90
2022-08-30T08:47:46.975Z,99.90
2022-08-30T08:50:21.028Z,99.90
2022-08-30T08:53:45.496Z,99.90
2022-08-30T08:56:16.783Z,99.90
2022-08-30T08:58:51.455Z,99.90
2022-08-30T09:01:23.730Z,99.90
2022-08-30T09:03:52.075Z,99.90
2022-08-30T09:06:25.284Z,99.90
2022-08-30T09:08:53.021Z,99.90
2022-08-30T09:11:26.962Z,99.90
2022-08-30T09:13:55.027Z,99.90
2022-08-30T09:16:50.462Z,99.90
2022-08-30T09:19:37.804Z,99.90
2022-08-30T09:22:37.740Z,99.90
2022-08-30T09:25:08.994Z,99.90
2022-08-30T09:27:42.154Z,99.90
2022-08-30T09:30:29.805Z,99.90
2022-08-30T09:33:00.134Z,99.90
2022-08-30T09:35:47.372Z,99.90
2022-08-30T09:38:18.099Z,99.90
2022-08-30T09:40:49.536Z,98.80
2022-08-30T09:43:16.830Z,94.70
2022-08-30T09:45:47.963Z,93.30
2022-08-30T09:48:32.900Z,93.40
2022-08-30T09:51:15.200Z,93.70
2022-08-30T09:54:18.299Z,94.30
2022-08-30T09:56:55.689Z,94.90
2022-08-30T09:59:39.981Z,93.20
2022-08-30T10:02:20.272Z,94.10
2022-08-30T10:05:00.462Z,95.20
2022-08-30T10:08:00.492Z,95.10
2022-08-30T10:10:34.282Z,93.60
2022-08-30T10:13:37.012Z,91.10
2022-08-30T10:16:15.881Z,92.60
2022-08-30T10:19:06.246Z,93.20
2022-08-30T10:21:59.310Z,90.50
2022-08-30T10:24:37.881Z,87.20
2022-08-30T10:27:34.848Z,84.40
2022-08-30T10:30:08.411Z,81.10
2022-08-30T10:32:54.143Z,83.10
2022-08-30T10:35:44.562Z,82.90
2022-08-30T10:38:15.978Z,85.00
2022-08-30T10:41:07.523Z,83.60
2022-08-30T10:43:54.678Z,86.70
2022-08-30T10:46:27.803Z,88.10
2022-08-30T10:49:01.273Z,87.70
2022-08-30T10:51:46.015Z,87.90
2022-08-30T10:54:19.419Z,90.00
2022-08-30T10:56:51.617Z,89.20
2022-08-30T10:59:20.491Z,89.30
2022-08-30T11:02:14.475Z,91.00
2022-08-30T11:04:50.648Z,92.20
2022-08-30T11:07:38.313Z,92.70
2022-08-30T11:10:41.005Z,92.90
2022-08-30T11:13:25.276Z,92.90
2022-08-30T11:16:06.321Z,92.70
2022-08-30T11:18:58.819Z,92.70
2022-08-30T11:21:40.327Z,92.80
2022-08-30T11:24:15.157Z,92.70
2022-08-30T11:26:45.384Z,92.10
2022-08-30T11:29:32.766Z,92.60
2022-08-30T11:32:48.502Z,92.70
2022-08-30T11:35:48.652Z,91.60
2022-08-30T11:38:18.983Z,91.00
2022-08-30T11:40:49.201Z,86.70
2022-08-30T11:43:42.821Z,76.80
2022-08-30T11:46:27.395Z,65.30
2022-08-30T11:49:15.785Z,59.50
2022-08-30T11:52:23.876Z,58.90
2022-08-30T11:55:15.103Z,56.10
2022-08-30T11:58:01.094Z,53.30
2022-08-30T12:00:35.183Z,51.20
2022-08-30T12:03:07.525Z,48.50
2022-08-30T12:05:42.884Z,47.30
2022-08-30T12:08:37.191Z,45.80
2022-08-30T12:11:11.058Z,45.70
2022-08-30T12:13:44.221Z,46.60
2022-08-30T12:16:14.757Z,46.00
2022-08-30T12:18:46.700Z,44.20
2022-08-30T12:21:19.916Z,43.50
2022-08-30T12:24:00.041Z,41.60
2022-08-30T12:26:35.505Z,38.30
2022-08-30T12:29:29.865Z,38.90
2022-08-30T12:32:14.813Z,41.20
2022-08-30T12:34:43.365Z,43.20
2022-08-30T12:37:26.749Z,46.70
2022-08-30T12:40:22.448Z,48.50
2022-08-30T12:43:00.766Z,50.20
2022-08-30T12:45:38.146Z,50.90
2022-08-30T12:48:11.537Z,51.70
2022-08-30T12:50:53.930Z,51.90
2022-08-30T12:53:32.315Z,52.10
2022-08-30T12:56:21.279Z,52.50
2022-08-30T12:58:58.074Z,53.40
2022-08-30T13:01:29.725Z,51.70
2022-08-30T13:04:34.278Z,47.60
2022-08-30T13:07:02.831Z,48.90
2022-08-30T13:09:42.787Z,49.30
2022-08-30T13:12:38.330Z,47.80
2022-08-30T13:15:27.960Z,46.90
2022-08-30T13:18:21.676Z,45.10
2022-08-30T13:21:22.639Z,41.40
2022-08-30T13:23:58.397Z,40.20
2022-08-30T13:26:30.191Z,38.80
2022-08-30T13:28:59.758Z,36.90
2022-08-30T13:31:29.322Z,38.20
2022-08-30T13:33:58.675Z,37.00
2022-08-30T13:36:30.631Z,36.00
2022-08-30T13:38:59.380Z,35.80
2022-08-30T13:41:34.173Z,36.10
2022-08-30T13:44:13.164Z,36.90
2022-08-30T13:46:48.616Z,36.50
2022-08-30T13:52:21.256Z,37.00
2022-08-30T13:54:51.401Z,36.70
2022-08-30T14:00:17.597Z,38.60
2022-08-30T14:02:53.933Z,38.50
2022-08-30T14:11:35.895Z,39.80
2022-08-30T14:14:32.426Z,40.00
2022-08-30T14:16:53.567Z,38.00
2022-08-30T14:19:20.978Z,37.50
2022-08-30T14:21:49.245Z,39.60
2022-08-30T14:24:20.089Z,39.60
2022-08-30T14:26:51.360Z,40.60
2022-08-30T14:29:26.119Z,40.10
2022-08-30T14:31:54.129Z,40.70
2022-08-30T14:34:22.976Z,41.20
2022-08-30T14:36:50.634Z,41.50
2022-08-30T14:39:20.437Z,41.80
2022-08-30T14:41:51.845Z,42.10
2022-08-30T14:44:20.674Z,42.70
2022-08-30T14:46:48.577Z,44.10
2022-08-30T14:49:16.798Z,43.90
2022-08-30T14:51:48.478Z,44.40
2022-08-30T14:54:18.682Z,45.20
2022-08-30T14:56:47.131Z,46.60
2022-08-30T14:59:15.077Z,46.80
2022-08-30T15:01:45.026Z,46.00
2022-08-30T15:04:14.064Z,46.60
2022-08-30T15:06:44.556Z,47.30
2022-08-30T15:09:15.418Z,47.50
2022-08-30T15:11:44.536Z,46.70
2022-08-30T15:14:16.240Z,47.10
2022-08-30T15:16:44.208Z,47.20
2022-08-30T15:19:12.315Z,47.30
2022-08-30T15:21:45.415Z,47.10
2022-08-30T15:24:17.367Z,47.70
2022-08-30T15:26:45.161Z,46.60
2022-08-30T15:29:17.815Z,46.80
2022-08-30T15:31:49.674Z,47.00
2022-08-30T15:34:20.444Z,47.00
2022-08-30T15:36:48.766Z,47.40
2022-08-30T15:39:18.327Z,48.30
2022-08-30T15:41:46.119Z,49.50
2022-08-30T15:44:23.313Z,49.00
2022-08-30T15:46:50.767Z,49.40
2022-08-30T15:49:21.238Z,48.50
2022-08-30T15:51:51.498Z,49.60
2022-08-30T15:54:22.978Z,50.20
2022-08-30T15:56:58.785Z,50.10
2022-08-30T15:59:28.102Z,50.00
2022-08-30T16:01:57.314Z,51.00
2022-08-30T16:04:25.688Z,51.20
2022-08-30T16:06:54.197Z,52.00
2022-08-30T16:09:22.039Z,51.80
2022-08-30T16:11:50.029Z,52.70
2022-08-30T16:14:17.994Z,53.00
2022-08-30T16:16:48.602Z,52.90
2022-08-30T16:19:15.998Z,54.00
2022-08-30T16:21:44.119Z,53.70
2022-08-30T16:24:14.187Z,53.90
2022-08-30T16:26:43.275Z,54.10
2022-08-30T16:29:12.548Z,53.80
2022-08-30T16:31:43.413Z,54.30
2022-08-30T16:34:17.770Z,55.10
2022-08-30T16:36:46.873Z,55.10
2022-08-30T16:39:14.677Z,55.70
2022-08-30T16:41:44.779Z,55.40
2022-08-30T16:44:13.670Z,55.60
2022-08-30T16:46:43.532Z,56.60
2022-08-30T16:49:20.535Z,57.50
2022-08-30T16:51:50.748Z,57.50
2022-08-30T16:54:19.314Z,58.30
2022-08-30T16:56:47.316Z,58.30
2022-08-30T16:59:16.630Z,58.30
2022-08-30T17:01:44.833Z,58.90
2022-08-30T17:04:13.864Z,59.20
2022-08-30T17:06:47.787Z,59.50
2022-08-30T17:09:17.427Z,60.00
2022-08-30T17:11:46.171Z,60.80
2022-08-30T17:14:14.467Z,61.00
2022-08-30T17:16:42.221Z,61.30
2022-08-30T17:19:13.771Z,61.00
2022-08-30T17:21:41.277Z,60.50
2022-08-30T17:24:09.030Z,60.80
2022-08-30T17:26:37.341Z,61.00
2022-08-30T17:29:05.658Z,61.20
2022-08-30T17:31:37.589Z,61.20
2022-08-30T17:34:05.717Z,60.20
2022-08-30T17:36:36.426Z,60.00
2022-08-30T17:39:10.906Z,59.40
2022-08-30T17:41:45.406Z,60.80
2022-08-30T17:44:25.605Z,60.10
2022-08-30T17:46:54.662Z,60.80
2022-08-30T17:49:23.437Z,61.30
2022-08-30T17:51:56.120Z,61.40
2022-08-30T17:54:25.880Z,61.90
2022-08-30T17:56:53.891Z,61.70
2022-08-30T17:59:25.338Z,63.20
2022-08-30T18:01:54.846Z,63.30
2022-08-30T18:04:24.969Z,63.20
2022-08-30T18:06:53.145Z,64.30
2022-08-30T18:09:22.105Z,65.00
2022-08-30T18:11:50.726Z,65.30
2022-08-30T18:14:24.162Z,65.60
2022-08-30T18:16:54.645Z,65.90
2022-08-30T18:19:27.067Z,66.80
2022-08-30T18:21:55.430Z,67.10
2022-08-30T18:24:23.761Z,67.60
2022-08-30T18:26:52.107Z,67.30
2022-08-30T18:29:26.008Z,67.10
2022-08-30T18:31:57.963Z,66.90
2022-08-30T18:34:25.530Z,66.70
2022-08-30T18:36:53.704Z,67.10
2022-08-30T18:39:22.458Z,66.90
2022-08-30T18:41:51.048Z,66.80
2022-08-30T18:44:29.581Z,67.40
2022-08-30T18:47:03.962Z,68.70
2022-08-30T18:49:36.044Z,69.10
2022-08-30T18:52:06.567Z,69.50
2022-08-30T18:54:41.266Z,70.10
2022-08-30T18:57:10.030Z,70.10
2022-08-30T18:59:38.659Z,70.90
2022-08-30T19:02:09.492Z,70.90
2022-08-30T19:04:38.206Z,71.50
2022-08-30T19:07:08.119Z,71.80
2022-08-30T19:09:41.119Z,71.90
2022-08-30T19:12:11.764Z,72.10
2022-08-30T19:14:40.083Z,72.20
2022-08-30T19:17:07.797Z,72.10
2022-08-30T19:19:48.242Z,72.40
2022-08-30T19:22:19.988Z,73.20
2022-08-30T19:24:50.381Z,73.80
2022-08-30T19:27:21.342Z,74.40
2022-08-30T19:30:10.776Z,74.80
2022-08-30T19:32:38.716Z,75.60
2022-08-30T19:35:07.606Z,76.00
2022-08-30T19:37:36.225Z,76.60
2022-08-30T19:40:10.960Z,77.20
2022-08-30T19:42:45.819Z,77.90
2022-08-30T19:45:21.501Z,79.10
2022-08-30T19:47:50.935Z,80.30
2022-08-30T19:50:19.928Z,81.50
2022-08-30T19:52:53.760Z,83.00
2022-08-30T19:55:28.522Z,83.80
2022-08-30T19:57:58.345Z,85.40
2022-08-30T20:00:25.843Z,87.30
2022-08-30T20:02:53.300Z,88.30
2022-08-30T20:05:22.262Z,90.60
2022-08-30T20:07:51.383Z,91.50
2022-08-30T20:10:20.526Z,92.50
2022-08-30T20:12:49.820Z,93.50
2022-08-30T20:15:18.128Z,94.80
2022-08-30T20:18:03.295Z,96.40
2022-08-30T20:20:33.559Z,97.80
2022-08-30T20:23:05.189Z,99.60
2022-08-30T20:25:32.838Z,99.90
2022-08-30T20:28:01.618Z,99.90
2022-08-30T20:30:28.977Z,99.90
2022-08-30T20:32:57.199Z,99.90
2022-08-30T20:35:24.955Z,99.90
2022-08-30T20:37:52.869Z,99.90
2022-08-30T20:40:21.739Z,99.90
2022-08-30T20:42:49.821Z,99.90
2022-08-30T20:45:17.867Z,99.90
2022-08-30T20:47:45.367Z,99.90
2022-08-30T20:50:15.782Z,99.90
2022-08-30T20:52:43.422Z,99.90
2022-08-30T20:55:12.651Z,99.90
2022-08-30T20:57:40.169Z,99.90
2022-08-30T21:00:11.754Z,99.90
2022-08-30T21:02:46.449Z,99.90
2022-08-30T21:05:15.877Z,99.90
2022-08-30T21:07:45.920Z,99.90
2022-08-30T21:10:14.025Z,99.90
2022-08-30T21:12:42.882Z,99.90
2022-08-30T21:15:33.870Z,99.90
2022-08-30T21:18:00.907Z,99.90
2022-08-30T21:20:29.049Z,99.90
2022-08-30T21:22:56.408Z,99.90
2022-08-30T21:25:23.856Z,99.90
2022-08-30T21:27:53.013Z,99.90
2022-08-30T21:30:20.470Z,99.90
2022-08-30T21:32:47.859Z,99.90
2022-08-30T21:35:34.007Z,99.90
2022-08-30T21:38:01.387Z,99.90
2022-08-30T21:40:29.162Z,99.90
2022-08-30T21:43:01.379Z,99.90
2022-08-30T21:45:33.024Z,99.90
2022-08-30T21:48:01.335Z,99.90
2022-08-30T21:50:28.688Z,99.90
2022-08-30T21:52:56.018Z,99.90
2022-08-30T21:55:24.030Z,99.90
2022-08-30T21:57:51.718Z,99.90
2022-08-30T22:00:20.948Z,99.90
2022-08-30T22:02:49.205Z,99.90
2022-08-30T22:05:21.189Z,99.90
2022-08-30T22:07:48.919Z,99.90
2022-08-30T22:10:16.336Z,99.90
2022-08-30T22:12:44.267Z,99.90
2022-08-30T22:15:12.651Z,99.90
2022-08-30T22:17:40.602Z,99.90
2022-08-30T22:20:09.147Z,99.90
2022-08-30T22:22:36.909Z,99.90
2022-08-30T22:25:04.645Z,99.90
2022-08-30T22:27:33.282Z,99.90
2022-08-30T22:30:00.805Z,99.90
2022-08-30T22:32:29.235Z,99.90
2022-08-30T22:34:56.766Z,99.90
2022-08-30T22:37:24.423Z,99.90
2022-08-30T22:39:52.174Z,99.90
2022-08-30T22:42:19.577Z,99.90
2022-08-30T22:44:47.505Z,99.90
2022-08-30T22:47:14.868Z,99.90
2022-08-30T22:49:42.305Z,99.90
2022-08-30T22:52:09.751Z,99.90
2022-08-30T22:54:37.832Z,99.90
2022-08-30T22:57:05.669Z,99.90
2022-08-30T22:59:33.855Z,99.90
2022-08-30T23:02:01.364Z,99.90
2022-08-30T23:04:28.793Z,99.90
2022-08-30T23:06:56.377Z,99.90
2022-08-30T23:09:23.734Z,99.90
2022-08-30T23:11:51.137Z,99.90
2022-08-30T23:14:19.014Z,99.90
2022-08-30T23:16:47.126Z,99.90
2022-08-30T23:19:15.282Z,99.90
2022-08-30T23:21:43.282Z,99.90
2022-08-30T23:24:29.002Z,99.90
2022-08-30T23:27:15.020Z,99.90
2022-08-30T23:30:00.843Z,99.90
2022-08-30T23:32:46.814Z,99.90
2022-08-30T23:35:33.352Z,99.90
2022-08-30T23:38:23.614Z,99.90
2022-08-30T23:41:10.509Z,99.90
2022-08-30T23:43:57.416Z,99.90
2022-08-30T23:46:43.301Z,99.90
2022-08-30T23:49:29.264Z,99.90
2022-08-30T23:52:16.447Z,99.90
2022-08-30T23:55:02.532Z,99.90
2022-08-30T23:57:49.125Z,99.90
